Time;durP1;ratioP1;P1;durP2;ratioP2;P2;SDS_P1;SDS_P2;PMS_P1;PMS_P2;Temp;Humidity;BMP_temperature;BMP_pressure;BME280_temperature;BME280_humidity;BME280_pressure;Samples;Min_cycle;Max_cycle;Signal;HPM_P1;HPM_P2
2021/10/20 00:01:55;;;;;;;2.10;1.90;;;;;;;9.88;85.08;98348.47;6249829;28;20208;-73
2021/10/20 00:04:57;;;;;;;4.07;2.60;;;;;;;9.90;85.01;98346.53;6248547;28;20188;-73
2021/10/20 00:08:03;;;;;;;2.70;2.23;;;;;;;9.91;85.01;98350.88;6249924;28;20213;-74
2021/10/20 00:11:05;;;;;;;2.67;2.47;;;;;;;9.90;85.65;98346.53;6232116;28;20209;-73
2021/10/20 00:14:07;;;;;;;4.03;2.33;;;;;;;9.91;85.62;98346.44;6231950;28;20416;-73
2021/10/20 00:17:09;;;;;;;4.33;2.30;;;;;;;9.90;85.17;98336.00;6249459;28;20199;-73
2021/10/20 00:20:16;;;;;;;3.03;2.60;;;;;;;9.88;85.32;98336.09;6247882;28;20763;-73
2021/10/20 00:23:18;;;;;;;2.07;1.80;;;;;;;9.87;85.32;98336.22;6231988;28;20222;-73
2021/10/20 00:26:22;;;;;;;2.37;2.03;;;;;;;9.88;85.42;98325.53;6231660;28;20214;-73
2021/10/20 00:29:24;;;;;;;4.47;2.20;;;;;;;9.89;85.05;98339.56;6230672;28;20330;-73
2021/10/20 00:32:26;;;;;;;4.23;2.60;;;;;;;9.86;85.49;98324.81;6239355;28;20189;-73
2021/10/20 00:35:28;;;;;;;2.30;2.10;;;;;;;9.86;85.22;98326.63;6238470;28;20203;-73
2021/10/20 00:38:30;;;;;;;1.77;1.67;;;;;;;9.86;85.16;98324.81;6236825;28;20684;-73
2021/10/20 00:41:32;;;;;;;1.90;1.50;;;;;;;9.90;85.46;98318.38;6230908;28;20216;-73
2021/10/20 00:45:04;;;;;;;1.83;1.60;;;;;;;9.92;85.69;98320.91;6249065;28;20493;-73
2021/10/20 00:48:06;;;;;;;1.90;1.70;;;;;;;9.93;85.49;98320.81;6172729;28;20205;-73
2021/10/20 00:51:08;;;;;;;2.37;1.70;;;;;;;9.95;85.30;98316.28;6172640;28;20277;-73
2021/10/20 00:54:10;;;;;;;2.07;1.87;;;;;;;9.96;85.02;98312.72;6172873;28;20197;-73
2021/10/20 00:57:13;;;;;;;2.47;1.83;;;;;;;9.97;85.33;98310.94;6172528;28;20210;-73
2021/10/20 01:00:16;;;;;;;1.67;1.50;;;;;;;9.98;84.95;98291.53;6172842;28;20289;-73
2021/10/20 01:03:18;;;;;;;2.60;1.80;;;;;;;10.00;85.03;98286.97;6164280;28;20202;-73
2021/10/20 01:06:20;;;;;;;1.73;1.53;;;;;;;9.99;84.73;98286.13;6172212;28;20260;-73
2021/10/20 01:09:23;;;;;;;1.50;1.40;;;;;;;10.00;85.35;98284.31;6156510;28;20204;-73
2021/10/20 01:12:26;;;;;;;3.97;1.43;;;;;;;10.00;84.53;98284.31;6172183;28;20214;-73
2021/10/20 01:15:28;;;;;;;1.47;1.37;;;;;;;10.02;84.65;98268.41;6172268;28;20202;-74
2021/10/20 01:18:31;;;;;;;1.63;1.53;;;;;;;10.00;84.84;98265.88;6172029;28;20232;-74
2021/10/20 01:21:34;;;;;;;3.93;1.90;;;;;;;9.97;84.50;98256.41;6172007;28;20218;-73
2021/10/20 01:24:36;;;;;;;1.57;1.47;;;;;;;9.93;84.94;98251.44;6218695;28;20212;-73
2021/10/20 01:27:39;;;;;;;2.70;1.73;;;;;;;9.92;84.78;98252.38;6247823;28;20247;-73
2021/10/20 01:30:42;;;;;;;1.70;1.50;;;;;;;9.95;85.14;98247.75;6230311;28;20362;-74
2021/10/20 01:33:45;;;;;;;1.60;1.50;;;;;;;9.96;85.28;98244.16;6247808;28;20361;-73
2021/10/20 01:36:48;;;;;;;1.50;1.40;;;;;;;9.97;84.84;98234.47;6248860;28;20351;-74
2021/10/20 01:39:51;;;;;;;2.23;1.63;;;;;;;9.94;84.54;98235.50;6247599;28;20193;-73
2021/10/20 01:42:53;;;;;;;2.03;1.60;;;;;;;9.92;84.58;98240.03;6246084;28;20204;-73
2021/10/20 01:45:55;;;;;;;3.00;1.50;;;;;;;9.95;84.92;98233.72;6230064;28;20668;-73
2021/10/20 01:48:57;;;;;;;1.30;1.20;;;;;;;9.98;84.40;98233.50;6247402;28;20606;-73
2021/10/20 01:51:59;;;;;;;2.30;1.47;;;;;;;9.98;84.46;98228.25;6247376;28;20218;-74
2021/10/20 01:55:04;;;;;;;1.40;1.20;;;;;;;9.96;84.66;98224.84;6246031;28;20192;-73
2021/10/20 01:58:06;;;;;;;1.50;1.20;;;;;;;9.95;85.12;98229.28;6246062;28;20227;-73
2021/10/20 02:01:08;;;;;;;1.50;1.30;;;;;;;9.98;84.59;98231.69;6229581;28;20704;-73
2021/10/20 02:04:13;;;;;;;1.60;1.47;;;;;;;10.03;84.64;98228.75;6246973;28;20234;-73
2021/10/20 02:07:16;;;;;;;1.40;1.30;;;;;;;10.05;85.12;98232.13;6246971;28;20208;-73
2021/10/20 02:10:18;;;;;;;2.07;1.33;;;;;;;10.05;84.79;98223.38;6229339;28;20211;-73
2021/10/20 02:13:20;;;;;;;1.50;1.40;;;;;;;10.01;84.58;98225.38;6246707;28;20185;-73
2021/10/20 02:16:22;;;;;;;2.47;1.53;;;;;;;9.98;84.87;98215.88;6246774;28;20567;-73
2021/10/20 02:19:27;;;;;;;1.73;1.50;;;;;;;9.97;84.98;98216.00;6228784;28;20726;-73
2021/10/20 02:22:29;;;;;;;1.60;1.50;;;;;;;9.96;84.36;98216.94;6237484;28;20213;-73
2021/10/20 02:25:31;;;;;;;2.07;1.47;;;;;;;9.94;84.62;98216.19;6235228;28;20291;-74
2021/10/20 02:28:33;;;;;;;2.20;1.50;;;;;;;9.93;85.13;98206.59;6246440;28;20211;-73
2021/10/20 02:31:35;;;;;;;1.67;1.57;;;;;;;9.91;84.47;98209.34;6200058;28;20818;-74
2021/10/20 02:34:37;;;;;;;1.87;1.60;;;;;;;9.91;84.85;98204.06;6195971;28;20197;-73
2021/10/20 02:37:39;;;;;;;1.23;1.10;;;;;;;9.88;84.50;98196.38;6207433;28;20189;-74
2021/10/20 02:40:41;;;;;;;1.30;1.10;;;;;;;9.85;85.28;98191.31;6196223;28;20292;-73
2021/10/20 02:43:43;;;;;;;2.20;1.43;;;;;;;9.82;84.45;98186.25;6196126;28;20197;-73
2021/10/20 02:46:45;;;;;;;2.43;1.50;;;;;;;9.82;84.91;98180.13;6197377;28;20200;-73
2021/10/20 02:49:47;;;;;;;1.90;1.40;;;;;;;9.80;85.12;98180.25;6195911;28;20201;-74
2021/10/20 02:52:49;;;;;;;1.90;1.53;;;;;;;9.80;84.96;98176.75;6195647;28;20296;-73
2021/10/20 02:55:51;;;;;;;1.80;1.40;;;;;;;9.80;85.15;98174.97;6196889;28;20192;-74
2021/10/20 02:58:55;;;;;;;2.53;1.50;;;;;;;9.80;84.96;98176.75;6196045;28;20208;-73
2021/10/20 03:01:58;;;;;;;2.67;1.43;;;;;;;9.79;84.74;98170.63;6197097;28;20224;-73
2021/10/20 03:05:00;;;;;;;1.70;1.20;;;;;;;9.78;85.24;98174.22;6195649;28;20311;-73
2021/10/20 03:08:02;;;;;;;1.83;1.27;;;;;;;9.79;84.97;98173.28;6197019;28;20201;-73
2021/10/20 03:11:04;;;;;;;1.50;1.40;;;;;;;9.80;84.78;98164.44;6196795;28;20657;-73
2021/10/20 03:14:06;;;;;;;1.20;1.10;;;;;;;9.80;85.11;98159.16;6196897;28;20201;-73
2021/10/20 03:17:10;;;;;;;1.43;1.30;;;;;;;9.81;84.67;98162.63;6195572;28;20204;-73
2021/10/20 03:20:12;;;;;;;2.17;1.60;;;;;;;9.76;84.99;98157.69;6196670;28;20197;-73
2021/10/20 03:23:14;;;;;;;1.30;1.20;;;;;;;9.73;85.25;98157.91;6196727;28;20220;-74
2021/10/20 03:26:16;;;;;;;1.47;1.37;;;;;;;9.68;84.98;98146.84;6195224;28;20331;-73
2021/10/20 03:29:18;;;;;;;2.97;1.60;;;;;;;9.62;84.62;98153.38;6200382;28;20720;-73
2021/10/20 03:32:20;;;;;;;1.93;1.50;;;;;;;9.57;85.29;98152.84;6244262;28;20183;-73
2021/10/20 03:35:22;;;;;;;1.47;1.37;;;;;;;9.55;85.04;98151.25;6245398;28;20211;-73
2021/10/20 03:38:24;;;;;;;1.90;1.07;;;;;;;9.51;85.08;98145.34;6245372;28;20318;-73
2021/10/20 03:41:26;;;;;;;1.47;1.37;;;;;;;9.50;85.45;98140.19;6245225;28;20215;-73
2021/10/20 03:44:28;;;;;;;1.40;1.30;;;;;;;9.45;84.70;98135.25;6245284;28;20265;-73
2021/10/20 03:47:30;;;;;;;2.07;1.20;;;;;;;9.40;84.54;98144.41;6245359;28;20662;-73
2021/10/20 03:50:32;;;;;;;1.77;1.57;;;;;;;9.35;85.37;98136.81;6245745;28;20192;-73
2021/10/20 03:53:34;;;;;;;1.60;1.40;;;;;;;9.32;85.63;98131.75;6245180;28;20622;-73
2021/10/20 03:56:36;;;;;;;1.70;1.30;;;;;;;9.26;85.14;98140.09;6229824;28;20200;-73
2021/10/20 03:59:39;;;;;;;3.00;1.60;;;;;;;9.12;85.34;98133.09;6227813;28;20221;-73
2021/10/20 04:02:43;;;;;;;1.20;1.03;;;;;;;9.00;84.98;98128.66;6244952;28;20207;-74
2021/10/20 04:05:45;;;;;;;2.20;1.40;;;;;;;8.89;84.87;98124.09;6229039;28;20718;-73
2021/10/20 04:08:47;;;;;;;2.07;1.60;;;;;;;8.79;85.45;98117.75;6249832;28;20290;-73
2021/10/20 04:11:49;;;;;;;2.77;1.30;;;;;;;8.67;85.22;98118.59;6249481;28;20193;-73
2021/10/20 04:14:51;;;;;;;1.87;1.40;;;;;;;8.58;85.41;98105.19;6249763;28;20555;-73
2021/10/20 04:17:54;;;;;;;1.83;1.33;;;;;;;8.47;85.99;98103.25;6231839;28;20214;-73
2021/10/20 04:20:55;;;;;;;2.27;1.63;;;;;;;8.38;85.65;98109.13;6249284;28;20195;-73
2021/10/20 04:23:57;;;;;;;1.80;1.40;;;;;;;8.30;85.38;98100.81;6223472;28;20203;-73
2021/10/20 04:27:00;;;;;;;2.10;1.90;;;;;;;8.21;85.44;98106.66;6244835;28;20224;-73
2021/10/20 04:30:06;;;;;;;3.00;1.73;;;;;;;8.07;84.80;98099.69;6215485;28;20597;-73
2021/10/20 04:33:08;;;;;;;2.27;1.90;;;;;;;7.96;85.24;98105.63;6223456;28;20211;-73
2021/10/20 04:36:10;;;;;;;2.83;1.87;;;;;;;7.90;84.88;98092.00;6234006;28;20196;-73
2021/10/20 04:39:13;;;;;;;1.63;1.50;;;;;;;7.85;84.96;98094.94;6264232;28;20193;-73
2021/10/20 04:42:15;;;;;;;1.93;1.73;;;;;;;7.77;84.82;98092.78;6247857;28;20553;-73
2021/10/20 04:45:17;;;;;;;2.07;1.50;;;;;;;7.74;85.30;98089.50;6247698;28;20322;-73
2021/10/20 04:48:22;;;;;;;2.33;1.57;;;;;;;7.70;85.74;98086.22;6231251;28;20323;-73
2021/10/20 04:51:24;;;;;;;1.67;1.47;;;;;;;7.65;85.54;98090.91;6247679;28;20693;-73
2021/10/20 04:54:26;;;;;;;2.50;2.00;;;;;;;7.57;85.47;98092.34;6247029;28;20207;-73
2021/10/20 04:57:28;;;;;;;2.50;1.87;;;;;;;7.51;84.98;98084.81;6247450;28;20203;-73
2021/10/20 05:00:30;;;;;;;1.50;1.40;;;;;;;7.45;85.62;98078.16;6231611;28;20207;-73
2021/10/20 05:03:32;;;;;;;2.03;1.70;;;;;;;7.42;85.35;98075.72;6230407;28;20212;-73
2021/10/20 05:06:34;;;;;;;2.10;1.90;;;;;;;7.40;84.93;98070.56;6248423;28;20563;-73
2021/10/20 05:09:38;;;;;;;1.93;1.70;;;;;;;7.35;85.42;98072.63;6248315;28;20612;-73
2021/10/20 05:12:40;;;;;;;2.30;1.87;;;;;;;7.32;85.83;98067.56;6248285;28;20191;-73
2021/10/20 05:15:42;;;;;;;2.10;1.53;;;;;;;7.31;85.23;98072.91;6246815;28;20233;-73
2021/10/20 05:18:44;;;;;;;1.33;1.23;;;;;;;7.30;85.38;98079.09;6248145;28;20199;-73
2021/10/20 05:21:46;;;;;;;2.90;1.70;;;;;;;7.26;85.39;98074.97;6247853;28;20216;-74
2021/10/20 05:24:48;;;;;;;1.73;1.63;;;;;;;7.21;85.40;98077.88;6246740;28;20196;-73
2021/10/20 05:27:51;;;;;;;2.27;1.37;;;;;;;7.18;85.47;98079.84;6230244;28;20253;-73
2021/10/20 05:30:53;;;;;;;1.97;1.77;;;;;;;7.13;85.31;98077.50;6229369;28;20598;-73
2021/10/20 05:33:55;;;;;;;1.93;1.73;;;;;;;7.08;85.57;98070.84;6230189;28;20601;-73
2021/10/20 05:36:57;;;;;;;2.27;1.87;;;;;;;7.05;85.52;98069.25;6252230;28;20564;-73
2021/10/20 05:39:59;;;;;;;2.30;2.10;;;;;;;7.02;85.17;98064.16;6229846;28;20199;-73
2021/10/20 05:43:01;;;;;;;1.87;1.70;;;;;;;6.97;85.48;98060.97;6230216;28;20218;-73
2021/10/20 05:46:03;;;;;;;3.17;2.17;;;;;;;6.92;85.24;98052.53;6247316;28;20193;-73
2021/10/20 05:49:05;;;;;;;1.90;1.70;;;;;;;6.90;85.33;98055.25;6230033;28;20543;-73
2021/10/20 05:52:07;;;;;;;2.67;1.90;;;;;;;6.89;85.05;98050.91;6247397;28;20214;-73
2021/10/20 05:55:12;;;;;;;2.50;2.10;;;;;;;6.85;85.24;98051.22;6229401;28;20222;-73
2021/10/20 05:58:14;;;;;;;3.00;2.23;;;;;;;6.83;85.31;98045.22;6246928;28;20202;-73
2021/10/20 06:01:17;;;;;;;3.23;2.43;;;;;;;6.86;85.24;98042.41;6229094;28;20280;-73
2021/10/20 06:04:19;;;;;;;2.67;2.17;;;;;;;6.85;85.38;98043.34;6245762;28;20200;-73
2021/10/20 06:07:21;;;;;;;2.50;2.30;;;;;;;6.85;85.25;98038.09;6246828;28;20561;-73
2021/10/20 06:10:24;;;;;;;3.27;2.23;;;;;;;6.87;85.16;98044.09;6245296;28;20202;-73
2021/10/20 06:13:26;;;;;;;2.37;2.17;;;;;;;6.88;85.35;98051.03;6246453;28;20683;-73
2021/10/20 06:16:31;;;;;;;2.13;1.97;;;;;;;6.88;85.37;98049.25;6228712;28;20792;-73
2021/10/20 06:19:33;;;;;;;2.93;2.10;;;;;;;6.89;85.28;98047.44;6246698;28;20278;-73
2021/10/20 06:22:35;;;;;;;2.70;2.27;;;;;;;6.91;85.72;98046.44;6246250;28;20727;-73
2021/10/20 06:25:37;;;;;;;3.60;2.50;;;;;;;6.94;85.38;98045.41;6245184;28;20458;-73
2021/10/20 06:28:39;;;;;;;3.43;2.37;;;;;;;6.95;85.03;98054.97;6245520;28;20200;-73
2021/10/20 06:31:41;;;;;;;2.40;2.20;;;;;;;6.98;85.52;98057.44;6221407;28;20237;-73
2021/10/20 06:34:43;;;;;;;2.13;1.93;;;;;;;7.01;85.30;98054.59;6242624;28;20297;-73
2021/10/20 06:37:50;;;;;;;2.10;1.90;;;;;;;7.06;85.47;98054.34;6245921;28;20198;-73
2021/10/20 06:40:51;;;;;;;2.03;1.83;;;;;;;7.09;85.54;98057.59;6246136;28;20198;-73
2021/10/20 06:43:53;;;;;;;2.83;2.17;;;;;;;7.15;85.06;98056.41;6245868;28;20214;-73
2021/10/20 06:46:56;;;;;;;1.90;1.70;;;;;;;7.18;85.39;98064.09;6228123;28;20671;-73
2021/10/20 06:49:58;;;;;;;2.77;2.37;;;;;;;7.21;85.17;98056.88;6245860;28;20279;-73
2021/10/20 06:53:01;;;;;;;2.63;2.43;;;;;;;7.26;85.47;98065.31;6245835;28;20243;-73
2021/10/20 06:56:05;;;;;;;2.97;2.13;;;;;;;7.28;85.30;98060.84;6244736;28;20203;-73
2021/10/20 06:59:07;;;;;;;2.00;1.80;;;;;;;7.30;85.41;98064.19;6244254;28;20305;-73
2021/10/20 07:02:09;;;;;;;2.30;2.10;;;;;;;7.36;85.37;98061.19;6219543;28;20217;-73
2021/10/20 07:05:12;;;;;;;2.40;2.20;;;;;;;7.39;84.80;98047.88;6236229;28;20722;-74
2021/10/20 07:08:14;;;;;;;2.77;2.50;;;;;;;7.41;85.14;98055.66;6234709;28;20196;-73
2021/10/20 07:11:16;;;;;;;2.67;2.27;;;;;;;7.45;85.16;98044.03;6245615;28;20229;-73
2021/10/20 07:14:18;;;;;;;2.40;2.20;;;;;;;7.50;84.77;98046.34;6244056;28;20552;-73
2021/10/20 07:17:20;;;;;;;2.67;2.47;;;;;;;7.57;85.44;98045.06;6228016;28;20202;-73
2021/10/20 07:20:23;;;;;;;2.70;2.50;;;;;;;7.61;84.83;98050.00;6245614;28;20676;-73
2021/10/20 07:23:25;;;;;;;3.23;2.20;;;;;;;7.70;84.72;98048.59;6243821;28;20704;-73
2021/10/20 07:26:27;;;;;;;3.00;2.60;;;;;;;7.77;85.07;98037.63;6244419;28;20210;-73
2021/10/20 07:29:29;;;;;;;3.63;2.77;;;;;;;7.85;84.63;98034.50;6244155;28;20230;-73
2021/10/20 07:32:31;;;;;;;3.27;2.63;;;;;;;7.95;85.12;98037.38;6245165;28;20566;-73
2021/10/20 07:35:33;;;;;;;3.30;2.63;;;;;;;8.05;85.24;98041.94;6245396;28;20192;-73
2021/10/20 07:38:36;;;;;;;4.13;2.80;;;;;;;8.12;84.67;98040.59;6245050;28;20217;-73
2021/10/20 07:41:39;;;;;;;4.33;3.30;;;;;;;8.20;84.95;98037.47;6232283;28;20660;-74
2021/10/20 07:44:44;;;;;;;5.03;4.53;;;;;;;8.30;85.10;98033.28;6250025;28;20582;-73
2021/10/20 07:47:48;;;;;;;6.43;5.00;;;;;;;8.43;85.20;98041.25;6250233;28;20209;-73
2021/10/20 07:50:50;;;;;;;8.47;6.97;;;;;;;8.63;85.44;98038.16;6248531;28;20203;-73
2021/10/20 07:53:52;;;;;;;6.97;6.00;;;;;;;8.84;85.47;98031.47;6248479;28;20290;-74
2021/10/20 07:56:54;;;;;;;8.17;7.07;;;;;;;9.04;84.63;98026.63;6232008;28;20212;-73
2021/10/20 07:59:56;;;;;;;9.07;7.20;;;;;;;9.29;85.13;98026.59;6249565;28;20206;-73
2021/10/20 08:03:00;;;;;;;10.30;8.00;;;;;;;9.59;84.22;98027.09;6249676;28;20224;-73
2021/10/20 08:06:03;;;;;;;11.23;8.43;;;;;;;9.93;83.37;98016.78;6249373;28;20198;-73
2021/10/20 08:09:05;;;;;;;16.53;13.87;;;;;;;10.20;82.67;98020.06;6231922;28;20199;-73
2021/10/20 08:12:07;;;;;;;15.50;13.07;;;;;;;10.52;81.81;98016.84;6249596;28;20198;-74
2021/10/20 08:15:11;;;;;;;14.87;12.23;;;;;;;10.86;81.11;98010.72;6248089;28;20582;-73
2021/10/20 08:18:14;;;;;;;13.93;11.33;;;;;;;11.20;80.10;98005.47;6231757;28;20204;-73
2021/10/20 08:21:16;;;;;;;12.07;10.67;;;;;;;11.50;79.09;97996.94;6249175;28;20198;-73
2021/10/20 08:24:18;;;;;;;12.73;11.37;;;;;;;11.76;78.18;97993.97;6249363;28;20292;-73
2021/10/20 08:27:21;;;;;;;12.37;10.83;;;;;;;12.00;77.72;97996.41;6249051;28;20220;-74
2021/10/20 08:30:23;;;;;;;12.70;11.27;;;;;;;12.23;76.62;97983.97;6248766;28;20239;-73
2021/10/20 08:33:25;;;;;;;12.10;10.33;;;;;;;12.50;76.02;97976.38;6248897;28;20184;-74
2021/10/20 08:36:27;;;;;;;11.43;10.23;;;;;;;12.79;75.49;97975.75;6249384;28;20334;-74
2021/10/20 08:39:29;;;;;;;11.27;9.93;;;;;;;13.05;74.62;97966.44;6248934;28;20529;-74
2021/10/20 08:42:31;;;;;;;10.07;9.00;;;;;;;13.32;74.12;97965.91;6230992;28;20214;-74
2021/10/20 08:45:38;;;;;;;9.40;8.47;;;;;;;13.56;72.90;97966.41;6248595;28;20194;-74
2021/10/20 08:48:41;;;;;;;10.17;9.07;;;;;;;13.84;72.02;97953.34;6248705;28;20202;-73
2021/10/20 08:51:45;;;;;;;11.43;7.80;;;;;;;14.10;71.57;97958.97;6230047;28;20229;-74
2021/10/20 08:54:47;;;;;;;10.87;8.23;;;;;;;14.33;70.75;97944.47;6248363;28;20205;-74
2021/10/20 08:57:51;;;;;;;9.73;8.73;;;;;;;14.54;69.92;97937.22;6248398;28;20208;-74
2021/10/20 09:00:53;;;;;;;9.90;8.20;;;;;;;14.75;69.47;97937.03;6248150;28;20286;-74
2021/10/20 09:03:55;;;;;;;8.70;7.80;;;;;;;14.95;68.84;97938.69;6230831;28;20222;-74
2021/10/20 09:07:00;;;;;;;11.37;8.33;;;;;;;15.20;68.13;97934.53;6230815;28;20207;-74
2021/10/20 09:10:05;;;;;;;8.57;7.70;;;;;;;15.41;67.40;97928.97;6248524;28;20564;-74
2021/10/20 09:13:07;;;;;;;9.23;7.33;;;;;;;15.62;66.87;97923.44;6230191;28;20562;-74
2021/10/20 09:16:09;;;;;;;10.50;9.27;;;;;;;15.66;66.06;97922.19;6248335;28;20196;-74
2021/10/20 09:19:32;;;;;;;9.47;8.17;;;;;;;15.50;66.37;97914.78;6247948;28;20668;-74
2021/10/20 09:22:33;;;;;;;8.37;7.47;;;;;;;15.73;66.08;97908.13;6248071;28;20694;-74
2021/10/20 09:25:44;;;;;;;8.67;7.87;;;;;;;16.03;65.33;97906.94;6229989;28;20583;-74
2021/10/20 09:28:46;;;;;;;8.20;7.40;;;;;;;16.32;64.64;97903.19;6246198;28;20719;-74
2021/10/20 09:32:06;;;;;;;9.17;7.57;;;;;;;16.38;64.55;97897.22;6229825;28;20197;-74
2021/10/20 09:35:12;;;;;;;10.60;8.07;;;;;;;16.54;63.71;97895.56;6246173;28;20204;-74
2021/10/20 09:38:14;;;;;;;7.80;6.97;;;;;;;16.66;63.42;97890.84;6247406;28;20188;-74
2021/10/20 09:41:18;;;;;;;8.80;8.00;;;;;;;16.65;63.39;97886.50;6240766;28;20197;-74
2021/10/20 09:44:21;;;;;;;8.63;7.20;;;;;;;16.89;62.69;97877.81;6245038;28;20215;-74
2021/10/20 09:47:24;;;;;;;8.30;7.50;;;;;;;17.16;61.83;97874.16;6245848;28;20196;-74
2021/10/20 09:50:27;;;;;;;9.97;7.40;;;;;;;17.33;61.39;97871.38;6247352;28;20275;-74
2021/10/20 09:53:31;;;;;;;8.60;7.37;;;;;;;17.52;60.77;97866.78;6247216;28;20202;-74
2021/10/20 09:56:34;;;;;;;11.43;7.97;;;;;;;17.60;59.91;97869.44;6247017;28;20319;-74
2021/10/20 09:59:38;;;;;;;11.47;9.57;;;;;;;17.59;58.89;97857.94;6246822;28;20342;-74
2021/10/20 10:02:40;;;;;;;8.63;7.57;;;;;;;17.58;59.13;97856.25;6245889;28;20579;-74
2021/10/20 10:05:42;;;;;;;8.40;7.70;;;;;;;17.77;58.26;97852.50;6246440;28;20580;-74
2021/10/20 10:08:46;;;;;;;9.53;8.53;;;;;;;17.91;57.59;97851.03;6247168;28;20317;-74
2021/10/20 10:11:54;;;;;;;9.30;7.27;;;;;;;18.08;57.96;97853.56;6246441;28;20391;-74
2021/10/20 10:15:15;;;;;;;9.87;7.83;;;;;;;18.31;56.81;97850.22;6246452;28;20199;-74
2021/10/20 10:18:25;;;;;;;8.07;7.27;;;;;;;18.48;56.59;97840.34;6246341;28;20246;-74
2021/10/20 10:21:28;;;;;;;9.10;8.17;;;;;;;18.58;55.96;97831.19;6220692;28;20700;-74
2021/10/20 10:24:36;;;;;;;9.53;8.20;;;;;;;18.92;55.00;97822.09;6233281;28;20249;-74
2021/10/20 10:27:40;;;;;;;8.67;7.53;;;;;;;19.17;54.57;97808.44;6246139;28;20815;-74
2021/10/20 10:30:51;;;;;;;9.67;8.57;;;;;;;19.22;53.43;97812.44;6245912;28;20230;-74
2021/10/20 10:33:54;;;;;;;11.97;9.20;;;;;;;19.03;52.67;97794.97;6246149;28;20738;-74
2021/10/20 10:36:59;;;;;;;12.63;8.93;;;;;;;19.21;52.44;97786.69;6250357;28;20202;-74
2021/10/20 10:40:25;;;;;;;8.40;7.50;;;;;;;19.43;53.00;97773.34;6246260;28;20172;-74
2021/10/20 10:43:27;;;;;;;9.20;7.17;;;;;;;19.68;52.79;97767.88;6245690;28;20208;-74
2021/10/20 10:47:04;;;;;;;10.50;9.50;;;;;;;19.37;49.49;97762.50;6228512;28;20204;-74
2021/10/20 10:50:11;;;;;;;11.20;8.97;;;;;;;19.10;51.23;97747.78;6239134;28;20216;-74
2021/10/20 10:53:38;;;;;;;12.10;10.90;;;;;;;18.83;51.28;97749.06;6245738;28;20671;-74
2021/10/20 10:57:08;;;;;;;9.80;8.80;;;;;;;19.11;51.47;97739.59;6245586;28;20200;-74
2021/10/20 11:00:26;;;;;;;10.67;9.40;;;;;;;19.21;51.14;97733.19;6245965;28;20194;-75
2021/10/20 11:03:28;;;;;;;10.00;8.23;;;;;;;19.45;51.81;97730.34;6245323;28;20274;-74
2021/10/20 11:06:31;;;;;;;9.67;8.67;;;;;;;19.56;50.80;97719.28;6245471;28;20224;-74
2021/10/20 11:09:34;;;;;;;9.73;8.47;;;;;;;19.65;50.75;97720.88;6245622;28;20196;-74
2021/10/20 11:12:38;;;;;;;9.93;8.93;;;;;;;19.90;50.28;97708.94;6245319;28;20188;-74
2021/10/20 11:15:43;;;;;;;9.53;8.23;;;;;;;20.01;50.42;97704.16;6227468;28;20647;-74
2021/10/20 11:18:53;;;;;;;10.37;9.37;;;;;;;20.14;49.82;97699.00;6243934;28;20222;-74
2021/10/20 11:21:57;;;;;;;10.40;9.27;;;;;;;20.35;49.52;97685.75;6244210;28;20176;-74
2021/10/20 11:25:00;;;;;;;10.00;8.73;;;;;;;20.50;48.62;97681.22;6244216;28;20227;-74
2021/10/20 11:28:05;;;;;;;9.90;8.00;;;;;;;20.59;49.28;97673.91;6243742;28;20688;-74
2021/10/20 11:31:08;;;;;;;9.43;8.50;;;;;;;20.79;48.99;97663.41;6219152;28;20576;-74
2021/10/20 11:34:18;;;;;;;9.00;8.07;;;;;;;20.91;48.36;97659.25;6194188;28;20201;-74
2021/10/20 11:37:23;;;;;;;15.47;10.40;;;;;;;20.68;48.85;97650.47;6183131;28;20610;-74
2021/10/20 11:40:30;;;;;;;10.63;8.73;;;;;;;20.25;49.26;97651.16;6185349;28;20197;-74
2021/10/20 11:43:45;;;;;;;12.07;10.37;;;;;;;20.34;48.71;97635.81;6196112;28;20206;-74
2021/10/20 11:46:47;;;;;;;10.47;9.37;;;;;;;20.55;48.69;97624.34;6196319;28;20200;-74
2021/10/20 11:49:52;;;;;;;9.87;8.87;;;;;;;20.72;48.55;97619.59;6194754;28;20248;-74
2021/10/20 11:53:02;;;;;;;11.57;9.40;;;;;;;21.09;48.05;97605.97;6196280;28;20202;-74
2021/10/20 11:56:11;;;;;;;9.80;8.83;;;;;;;21.21;47.13;97598.28;6196023;28;20365;-74
2021/10/20 11:59:24;;;;;;;10.80;9.70;;;;;;;20.88;46.96;97595.22;6217534;23;20582;-68
2021/10/20 12:02:31;;;;;;;11.27;10.17;;;;;;;20.34;48.82;97584.88;6195257;28;20204;-69
2021/10/20 12:05:33;;;;;;;10.93;9.03;;;;;;;20.44;48.93;97582.78;6193783;28;20193;-69
2021/10/20 12:08:37;;;;;;;11.10;9.10;;;;;;;20.97;47.97;97576.13;6195763;23;20249;-75
2021/10/20 12:11:40;;;;;;;9.97;8.97;;;;;;;21.15;47.12;97586.44;6165712;28;20206;-72
2021/10/20 12:14:45;;;;;;;11.40;9.53;;;;;;;20.72;47.07;97582.88;6155888;28;20187;-73
2021/10/20 12:17:50;;;;;;;9.73;8.10;;;;;;;20.92;47.60;97575.06;6158257;28;20194;-72
2021/10/20 12:20:54;;;;;;;9.23;8.40;;;;;;;21.41;46.47;97563.56;6159427;28;20198;-72
2021/10/20 12:23:59;;;;;;;11.10;10.00;;;;;;;21.43;46.75;97564.19;6155321;28;20199;-72
2021/10/20 12:27:04;;;;;;;10.47;9.43;;;;;;;21.62;45.72;97564.34;6174954;28;20557;-73
2021/10/20 12:30:08;;;;;;;10.23;8.40;;;;;;;21.98;45.55;97547.22;6161009;28;20257;-72
2021/10/20 12:33:13;;;;;;;9.17;8.27;;;;;;;22.17;45.60;97548.38;6177833;28;20241;-72
2021/10/20 12:36:18;;;;;;;10.10;8.17;;;;;;;21.79;45.29;97531.78;6177483;28;20567;-72
2021/10/20 12:39:20;;;;;;;7.93;7.23;;;;;;;22.17;44.16;97532.22;6177505;28;20190;-72
2021/10/20 12:42:22;;;;;;;9.43;7.63;;;;;;;22.04;44.32;97520.41;6176012;28;20683;-72
2021/10/20 12:45:27;;;;;;;9.60;7.23;;;;;;;22.35;44.51;97519.94;6177213;28;20573;-72
2021/10/20 12:48:31;;;;;;;8.17;6.67;;;;;;;22.25;45.06;97506.03;6159779;28;20201;-72
2021/10/20 12:51:35;;;;;;;8.60;6.63;;;;;;;21.84;45.33;97511.38;6176793;28;20677;-72
2021/10/20 12:54:37;;;;;;;7.70;6.43;;;;;;;21.80;46.97;97494.00;6176796;28;20662;-72
2021/10/20 12:57:41;;;;;;;8.20;6.73;;;;;;;22.09;45.89;97485.69;6159595;28;20696;-72
2021/10/20 13:00:43;;;;;;;7.63;6.17;;;;;;;22.35;44.49;97486.84;6175207;28;20218;-72
2021/10/20 13:03:45;;;;;;;6.63;6.00;;;;;;;22.50;43.84;97481.28;6176445;28;20807;-73
2021/10/20 13:06:47;;;;;;;7.90;6.10;;;;;;;22.88;43.67;97466.25;6175342;28;20221;-72
2021/10/20 13:09:49;;;;;;;6.40;5.43;;;;;;;23.51;42.76;97461.28;6165327;28;20726;-72
2021/10/20 13:12:57;;;;;;;6.77;5.77;;;;;;;24.17;42.72;97453.81;6176628;28;20205;-73
2021/10/20 13:15:59;;;;;;;9.47;5.83;;;;;;;25.39;38.74;97436.38;6159195;28;20209;-72
2021/10/20 13:19:03;;;;;;;9.57;6.10;;;;;;;26.11;37.06;97423.97;6174502;28;20194;-72
2021/10/20 13:22:06;;;;;;;5.87;5.27;;;;;;;27.15;36.09;97407.22;6159359;28;20205;-72
2021/10/20 13:25:10;;;;;;;6.90;4.67;;;;;;;27.72;34.23;97399.31;6159015;28;20591;-72
2021/10/20 13:28:12;;;;;;;6.07;4.70;;;;;;;27.94;32.21;97406.81;6158934;28;20349;-72
2021/10/20 13:31:14;;;;;;;7.07;4.87;;;;;;;25.62;35.60;97406.03;6158977;28;20561;-73
2021/10/20 13:34:16;;;;;;;6.90;4.73;;;;;;;23.37;40.02;97411.97;6175726;28;20583;-73
2021/10/20 13:37:19;;;;;;;6.37;5.03;;;;;;;22.32;44.48;97409.25;6167256;28;20397;-72
2021/10/20 13:40:21;;;;;;;5.23;4.73;;;;;;;21.30;45.75;97396.59;6160018;28;20197;-72
2021/10/20 13:43:23;;;;;;;7.23;4.97;;;;;;;21.12;48.32;97390.06;6174221;28;20201;-73
2021/10/20 13:46:26;;;;;;;6.40;4.57;;;;;;;20.59;47.10;97395.84;6153105;28;20239;-73
2021/10/20 13:49:28;;;;;;;5.63;4.50;;;;;;;20.31;46.86;97384.22;6174388;28;20194;-72
2021/10/20 13:52:30;;;;;;;6.37;4.57;;;;;;;20.02;46.38;97381.66;6152045;28;20212;-72
2021/10/20 13:55:33;;;;;;;6.13;4.40;;;;;;;19.81;47.40;97377.09;6170064;28;20209;-72
2021/10/20 13:58:35;;;;;;;4.80;4.30;;;;;;;19.56;47.65;97373.09;6174839;28;20747;-72
2021/10/20 14:01:37;;;;;;;6.80;4.57;;;;;;;19.43;47.97;97387.09;6175184;28;20194;-71
2021/10/20 14:04:39;;;;;;;5.60;5.07;;;;;;;19.24;48.48;97377.78;6175132;28;20724;-72
2021/10/20 14:07:41;;;;;;;5.00;4.50;;;;;;;19.18;49.16;97390.03;6167733;28;20693;-72
2021/10/20 14:10:43;;;;;;;20.47;6.27;;;;;;;18.97;51.74;97389.94;6122548;28;20213;-72
2021/10/20 14:13:45;;;;;;;6.97;4.40;;;;;;;18.81;50.63;97390.09;6175004;28;20196;-72
2021/10/20 14:16:48;;;;;;;6.67;4.53;;;;;;;18.69;51.34;97381.69;6175289;28;20216;-72
2021/10/20 14:19:51;;;;;;;9.00;4.73;;;;;;;18.54;53.06;97396.00;6162637;28;20199;-72
2021/10/20 14:22:53;;;;;;;4.60;3.97;;;;;;;18.30;52.29;97395.19;6169966;28;20552;-72
2021/10/20 14:25:55;;;;;;;9.10;5.60;;;;;;;18.26;53.65;97393.88;6175050;28;20220;-72
2021/10/20 14:28:57;;;;;;;8.20;5.30;;;;;;;18.01;52.97;97387.03;6174944;28;20198;-72